Flight Track Log - Related Links

Times and Time Zones

All times are in EDT time to prevent confusion due to time zone crossing. See the BAW2276 flight status page for this flight to view local times or setup timezone preferences in your user account.

Time Position Orientation Groundspeed Altitude Reporting Facility
EDT Latitude Longitude Course Direction KTS MPH feet Rate Location/Type
Mon 07:23:42 PM 36.0770 -115.1770 270° West 191 220 3,100  Level FlightAware ADS-B
Mon 07:24:12 PM 36.0770 -115.2110 270° West 202 232 3,900 1,091 Climbing FlightAware ADS-B
Mon 07:24:37 PM 36.0760 -115.2390 267° West 224 258 4,100 873 Climbing FlightAware ADS-B
Mon 07:25:07 PM 36.0840 -115.2780 284° West 257 296 4,700 1,350 Climbing FlightAware ADS-B
Mon 07:25:17 PM 36.0940 -115.2880 321° Northwest 267 307 5,000 1,440 Climbing FlightAware ADS-B
Mon 07:25:32 PM 36.1130 -115.2960 341° North 282 325 5,300 2,267 Climbing FlightAware ADS-B
Mon 07:26:02 PM 36.1510 -115.2880 10° North 284 327 6,700 2,533 Climbing FlightAware ADS-B
Mon 07:26:17 PM 36.1640 -115.2730 43° Northeast 287 330 7,200 1,800 Climbing FlightAware ADS-B
Mon 07:26:42 PM 36.1790 -115.2340 65° Northeast 295 339 7,900 1,964 Climbing FlightAware ADS-B
Mon 07:27:12 PM 36.1810 -115.1830 87° East 295 339 9,000 2,182 Climbing FlightAware ADS-B
Mon 07:27:37 PM 36.1810 -115.1420 90° East 299 344 9,900 2,229 Climbing FlightAware ADS-B
Mon 07:28:22 PM 36.1830 -115.0630 88° East 302 348 11,600 2,118 Climbing FlightAware ADS-B
Mon 07:29:02 PM 36.1910 -114.9940 82° East 315 362 12,900 2,118 Climbing FlightAware ADS-B
Mon 07:29:47 PM 36.2050 -114.9160 77° East 324 373 14,600 2,118 Climbing FlightAware ADS-B
Mon 07:30:27 PM 36.2140 -114.8410 82° East 333 383 15,900 1,976 Climbing FlightAware ADS-B
Mon 07:31:12 PM 36.2150 -114.7530 89° East 342 394 17,400 1,835 Climbing FlightAware ADS-B
Mon 07:31:52 PM 36.2120 -114.6720 93° East 352 405 18,500 1,275 Climbing FlightAware ADS-B
Mon 07:32:32 PM 36.2080 -114.5880 93° East 383 441 19,100 1,341 Climbing FlightAware ADS-B
Mon 07:33:17 PM 36.2040 -114.4910 93° East 392 451 20,400 1,624 Climbing FlightAware ADS-B
Mon 07:33:57 PM 36.2030 -114.4020 91° East 409 471 21,400 1,694 Climbing FlightAware ADS-B
Mon 07:34:42 PM 36.2020 -114.2900 91° East 421 484 22,800 1,765 Climbing FlightAware ADS-B
Mon 07:35:22 PM 36.2030 -114.1940 89° East 429 494 23,900 1,575 Climbing FlightAware ADS-B
Mon 07:36:02 PM 36.2030 -114.0920 90° East 441 507 24,900 1,500 Climbing FlightAware ADS-B
Mon 07:36:42 PM 36.2020 -113.9920 91° East 446 513 25,900 1,267 Climbing FlightAware ADS-B
Mon 07:37:32 PM 36.2020 -113.8640 90° East 462 532 26,800 1,067 Climbing FlightAware ADS-B
Mon 07:38:12 PM 36.2020 -113.7590 90° East 471 542 27,500 988 Climbing FlightAware ADS-B
Mon 07:38:57 PM 36.2030 -113.6350 89° East 482 555 28,200 988 Climbing FlightAware ADS-B
Mon 07:39:37 PM 36.2110 -113.5250 85° East 491 565 28,900 750 Climbing FlightAware ADS-B
Mon 07:40:17 PM 36.2490 -113.4170 66° East 508 585 29,200 353 Climbing FlightAware ADS-B
Mon 07:41:02 PM 36.3010 -113.3070 60° Northeast 528 608 29,400 424 Climbing FlightAware ADS-B
Mon 07:41:42 PM 36.3520 -113.1980 60° Northeast 544 626 29,800 675 Climbing FlightAware ADS-B
Mon 07:42:22 PM 36.4030 -113.0890 60° Northeast 555 639 30,300 776 Climbing FlightAware ADS-B
Mon 07:43:07 PM 36.4630 -112.9610 60° Northeast 564 649 30,900 494 Climbing FlightAware ADS-B
Mon 07:43:47 PM 36.5130 -112.8540 60° Northeast 567 652 31,000 71 Climbing FlightAware ADS-B
Mon 07:44:32 PM 36.5760 -112.7280 58° Northeast 566 651 31,000  Level FlightAware ADS-B
Mon 07:45:12 PM 36.6350 -112.6180 56° Northeast 565 650 31,000  Level FlightAware ADS-B
Mon 07:45:57 PM 36.6990 -112.4950 57° Northeast 563 648 31,000  Level FlightAware ADS-B
Mon 07:46:37 PM 36.7560 -112.3850 57° Northeast 561 646 31,000  Level FlightAware ADS-B
Mon 07:47:12 PM 36.8030 -112.3060 53° Northeast 553 636 31,000  Level FlightAware ADS-B
Mon 07:47:57 PM 36.8750 -112.2050 48° Northeast 552 635 31,000  Level FlightAware ADS-B
Mon 07:48:37 PM 36.9330 -112.1250 48° Northeast 552 635 31,000  Level FlightAware ADS-B
Mon 07:49:17 PM 36.9910 -112.0440 48° Northeast 552 635 31,000  Level FlightAware ADS-B
Mon 07:50:07 PM 37.0640 -111.9430 48° Northeast 552 635 31,000  Level FlightAware ADS-B
Mon 07:50:47 PM 37.1220 -111.8620 48° Northeast 552 635 31,000  Level FlightAware ADS-B
Mon 07:51:27 PM 37.1800 -111.7810 48° Northeast 552 635 31,000  Level FlightAware ADS-B
Mon 07:52:07 PM 37.2380 -111.7000 48° Northeast 552 635 31,000  Level FlightAware ADS-B
Mon 07:52:47 PM 37.2960 -111.6190 48° Northeast 552 635 31,000  Level FlightAware ADS-B
Mon 07:53:37 PM 37.3690 -111.5170 48° Northeast 552 635 31,000  Level FlightAware ADS-B
Mon 07:54:17 PM 37.4270 -111.4360 48° Northeast 552 635 31,000  Level FlightAware ADS-B
Mon 07:54:57 PM 37.4850 -111.3550 48° Northeast 552 635 31,000  Level FlightAware ADS-B
Mon 07:55:37 PM 37.5430 -111.2740 48° Northeast 552 635 31,000  Level FlightAware ADS-B
Mon 07:56:17 PM 37.6010 -111.1920 48° Northeast 552 635 31,000  Level FlightAware ADS-B
Mon 07:57:07 PM 37.6740 -111.0900 48° Northeast 552 635 31,000 1,481 Level FlightAware ADS-B
Mon 07:58:59 PM 37.7311 -110.5150 38° Northeast 504 580 35,000 1,017 Climbing Denver Center
Mon 08:01:03 PM 37.8828 -110.1994 59° Northeast 505 581 35,000  Level Denver Center
Mon 08:02:00 PM 38.2001 -110.5680 38° Northeast  Level Estimated
Mon 08:02:05 PM 37.9636 -110.0306 59° Northeast 503 579 35,000  Level Denver Center
Mon 08:03:00 PM 38.3075 -110.4602 38° Northeast  Level Estimated
Mon 08:03:07 PM 38.0214 -109.9094 59° Northeast 503 579 35,000  Level Denver Center
Mon 08:04:00 PM 38.4148 -110.3521 38° Northeast  Level Estimated
Mon 08:04:09 PM 38.0967 -109.7472 59° Northeast 500 575 35,000  Level Denver Center
Mon 08:06:13 PM 38.2553 -109.4119 59° Northeast 495 570 35,000  Level Denver Center
Mon 08:12:32 PM 38.6870 -108.4720 59° Northeast 487 560 35,000  Level FlightAware ADS-B
Mon 08:13:12 PM 38.7370 -108.3620 60° Northeast 485 558 35,000  Level FlightAware ADS-B
Mon 08:14:37 PM 38.8320 -108.1500 60° Northeast 484 557 35,000  Level FlightAware ADS-B
Mon 08:15:32 PM 38.8880 -108.0250 60° Northeast 486 559 35,000  Level FlightAware ADS-B
Mon 08:16:12 PM 38.9330 -107.9240 60° Northeast 486 559 35,000  Level FlightAware ADS-B
Mon 08:17:42 PM 39.0290 -107.7070 60° Northeast 479 551 35,000  Level FlightAware ADS-B
Mon 08:18:32 PM 39.0910 -107.5680 60° Northeast 478 550 35,000  Level FlightAware ADS-B
Mon 08:19:17 PM 39.1400 -107.4540 61° Northeast 479 551 35,000  Level FlightAware ADS-B
Mon 08:19:49 PM 39.1777 -107.3690 60° Northeast 480 552 35,000  Level FlightAware ADS-B
Mon 08:20:19 PM 39.2105 -107.2940 61° Northeast 480 552 35,000  Level FlightAware ADS-B
Mon 08:20:50 PM 39.2439 -107.2170 61° Northeast 479 551 35,000  Level FlightAware ADS-B
Mon 08:21:20 PM 39.2764 -107.1430 60° Northeast 479 551 35,000  Level FlightAware ADS-B
Mon 08:21:52 PM 39.3108 -107.0630 61° Northeast 480 552 35,000  Level FlightAware ADS-B
Mon 08:22:24 PM 39.3451 -106.9840 61° Northeast 480 552 35,000  Level FlightAware ADS-B
Mon 08:22:55 PM 39.3792 -106.9050 61° Northeast 481 554 35,000  Level FlightAware ADS-B
Mon 08:23:25 PM 39.4118 -106.8290 61° Northeast 481 554 35,000  Level FlightAware ADS-B
Mon 08:23:56 PM 39.4453 -106.7510 61° Northeast 481 554 35,000  Level FlightAware ADS-B
Mon 08:24:26 PM 39.4776 -106.6750 61° Northeast 481 554 35,000  Level FlightAware ADS-B
Mon 08:24:57 PM 39.5105 -106.5980 61° Northeast 481 554 35,000  Level FlightAware ADS-B
Mon 08:25:27 PM 39.5426 -106.5230 61° Northeast 481 554 35,000  Level FlightAware ADS-B
Mon 08:25:57 PM 39.5752 -106.4470 61° Northeast 480 552 35,000  Level FlightAware ADS-B
Mon 08:26:28 PM 39.6075 -106.3700 61° Northeast 481 554 35,000  Level FlightAware ADS-B
Mon 08:26:58 PM 39.6398 -106.2940 61° Northeast 482 555 35,000  Level FlightAware ADS-B
Mon 08:27:28 PM 39.6722 -106.2170 61° Northeast 484 557 35,000  Level FlightAware ADS-B
Mon 08:27:59 PM 39.7047 -106.1400 61° Northeast 485 558 35,000  Level FlightAware ADS-B
Mon 08:28:29 PM 39.7373 -106.0620 61° Northeast 485 558 35,000  Level FlightAware ADS-B
Mon 08:29:00 PM 39.7707 -105.9820 61° Northeast 486 559 35,000  Level FlightAware ADS-B
Mon 08:29:31 PM 39.8037 -105.9030 61° Northeast 489 563 35,000  Level FlightAware ADS-B
Mon 08:30:02 PM 39.8367 -105.8240 61° Northeast 490 564 35,000  Level FlightAware ADS-B
Mon 08:30:32 PM 39.8692 -105.7460 61° Northeast 492 566 35,000  Level FlightAware ADS-B
Mon 08:31:03 PM 39.9024 -105.6660 62° Northeast 493 567 35,000  Level FlightAware ADS-B
Mon 08:31:35 PM 39.9372 -105.5810 62° Northeast 495 570 35,000  Level FlightAware ADS-B
Mon 08:32:12 PM 39.9771 -105.4850 62° Northeast 497 572 35,000  Level FlightAware ADS-B
Mon 08:32:43 PM 40.0111 -105.4020 62° Northeast 498 573 35,000  Level FlightAware ADS-B
Mon 08:33:17 PM 40.0460 -105.3160 62° Northeast 499 574 35,000  Level FlightAware ADS-B
Mon 08:33:32 PM 40.0640 -105.2720 62° Northeast 498 573 35,000  Level FlightAware ADS-B
Mon 08:34:04 PM 40.0987 -105.1870 62° Northeast 500 575 35,000  Level FlightAware ADS-B
Mon 08:34:38 PM 40.1351 -105.0980 62° Northeast 500 575 35,000  Level FlightAware ADS-B
Mon 08:35:08 PM 40.1676 -105.0170 62° Northeast 498 573 35,000  Level FlightAware ADS-B
Mon 08:35:38 PM 40.2003 -104.9370 62° Northeast 497 572 35,000  Level FlightAware ADS-B
Mon 08:36:08 PM 40.2326 -104.8570 62° Northeast 497 572 35,000  Level FlightAware ADS-B
Mon 08:36:41 PM 40.2679 -104.7690 62° Northeast 497 572 35,000  Level FlightAware ADS-B
Mon 08:37:11 PM 40.2999 -104.6890 62° Northeast 498 573 35,000  Level FlightAware ADS-B
Mon 08:37:42 PM 40.3324 -104.6080 62° Northeast 497 572 35,000  Level FlightAware ADS-B
Mon 08:38:13 PM 40.3659 -104.5240 62° Northeast 497 572 35,000  Level FlightAware ADS-B
Mon 08:38:44 PM 40.3988 -104.4410 62° Northeast 497 572 35,000  Level FlightAware ADS-B
Mon 08:39:15 PM 40.4312 -104.3590 63° Northeast 497 572 35,000  Level FlightAware ADS-B
Mon 08:39:45 PM 40.4631 -104.2790 62° Northeast 497 572 35,000  Level FlightAware ADS-B
Mon 08:40:16 PM 40.4962 -104.1950 63° Northeast 497 572 35,000  Level FlightAware ADS-B
Mon 08:40:48 PM 40.5292 -104.1110 63° Northeast 498 573 35,000  Level FlightAware ADS-B
Mon 08:41:18 PM 40.5612 -104.0290 63° Northeast 498 573 35,000  Level FlightAware ADS-B
Mon 08:41:48 PM 40.5929 -103.9480 63° Northeast 500 575 35,000  Level FlightAware ADS-B
Mon 08:42:18 PM 40.6246 -103.8670 63° Northeast 501 577 35,000  Level FlightAware ADS-B
Mon 08:42:48 PM 40.6564 -103.7850 63° Northeast 501 577 35,000  Level FlightAware ADS-B
Mon 08:43:20 PM 40.6895 -103.7000 63° Northeast 503 579 35,000  Level FlightAware ADS-B
Mon 08:44:05 PM 40.7365 -103.5780 63° Northeast 500 575 35,000  Level FlightAware ADS-B
Mon 08:44:35 PM 40.7681 -103.4960 63° Northeast 500 575 35,000  Level FlightAware ADS-B
Mon 08:45:05 PM 40.8000 -103.4130 63° Northeast 499 574 35,000  Level FlightAware ADS-B
Mon 08:45:39 PM 40.8344 -103.3230 63° Northeast 498 573 35,000  Level FlightAware ADS-B
Mon 08:46:09 PM 40.8655 -103.2420 63° Northeast 498 573 35,000  Level FlightAware ADS-B
Mon 08:46:43 PM 40.9008 -103.1490 63° Northeast 496 571 35,000  Level FlightAware ADS-B
Mon 08:47:14 PM 40.9322 -103.0660 63° Northeast 496 571 35,000  Level FlightAware ADS-B
Mon 08:47:44 PM 40.9635 -102.9840 63° Northeast 495 570 35,000  Level FlightAware ADS-B
Mon 08:48:16 PM 40.9961 -102.8980 63° Northeast 496 571 35,000  Level FlightAware ADS-B
Mon 08:48:46 PM 41.0271 -102.8150 64° Northeast 495 570 35,000  Level FlightAware ADS-B
Mon 08:49:17 PM 41.0578 -102.7330 64° Northeast 496 571 35,000  Level FlightAware ADS-B
Mon 08:50:07 PM 41.1086 -102.5980 63° Northeast 496 571 35,000  Level FlightAware ADS-B
Mon 08:50:38 PM 41.1399 -102.5140 64° Northeast 498 573 35,000  Level FlightAware ADS-B
Mon 08:51:08 PM 41.1707 -102.4300 64° Northeast 498 573 35,000  Level FlightAware ADS-B
Mon 08:51:39 PM 41.2020 -102.3460 64° Northeast 499 574 35,000  Level FlightAware ADS-B
Mon 08:52:11 PM 41.2345 -102.2580 64° Northeast 500 575 35,000  Level FlightAware ADS-B
Mon 08:52:42 PM 41.2659 -102.1730 64° Northeast 500 575 35,000  Level FlightAware ADS-B
Mon 08:53:18 PM 41.3023 -102.0730 64° Northeast 500 575 35,000  Level FlightAware ADS-B
Mon 08:53:49 PM 41.3334 -101.9880 64° Northeast 500 575 35,000  Level FlightAware ADS-B
Mon 08:54:21 PM 41.3657 -101.9000 64° Northeast 501 577 35,000  Level FlightAware ADS-B
Mon 08:54:51 PM 41.3958 -101.8170 64° Northeast 500 575 35,000  Level FlightAware ADS-B
Mon 08:55:21 PM 41.4262 -101.7330 64° Northeast 500 575 35,000  Level FlightAware ADS-B
Mon 08:55:52 PM 41.4575 -101.6470 64° Northeast 501 577 35,000  Level FlightAware ADS-B
Mon 08:56:22 PM 41.4860 -101.5680 64° Northeast 502 578 35,000  Level FlightAware ADS-B
Mon 08:57:12 PM 41.5330 -101.4380 64° Northeast 504 580 35,000  Level FlightAware ADS-B
Mon 08:58:02 PM 41.5760 -101.3190 64° Northeast 504 580 35,000  Level FlightAware ADS-B
Mon 08:58:42 PM 41.6110 -101.2230 64° Northeast 504 580 35,000  Level FlightAware ADS-B
Mon 08:59:22 PM 41.6460 -101.1280 64° Northeast 504 580 35,000  Level FlightAware ADS-B
Mon 09:00:02 PM 41.6810 -101.0330 64° Northeast 504 580 35,000  Level FlightAware ADS-B
Mon 09:00:42 PM 41.7150 -100.9370 65° Northeast 504 580 35,000  Level FlightAware ADS-B
Mon 09:01:22 PM 41.7500 -100.8420 64° Northeast 504 580 35,000  Level FlightAware ADS-B
Mon 09:02:12 PM 41.7930 -100.7220 64° Northeast 504 580 35,000  Level FlightAware ADS-B
Mon 09:02:52 PM 41.8280 -100.6270 64° Northeast 504 580 35,000  Level FlightAware ADS-B
Mon 09:03:32 PM 41.8630 -100.5310 64° Northeast 504 580 35,000  Level FlightAware ADS-B
Mon 09:04:12 PM 41.8980 -100.4350 64° Northeast 504 580 35,000  Level FlightAware ADS-B
Mon 09:04:52 PM 41.9320 -100.3390 65° Northeast 504 580 35,000  Level FlightAware ADS-B
Mon 09:05:42 PM 41.9760 -100.2200 64° Northeast 504 580 35,000  Level FlightAware ADS-B
Mon 09:06:22 PM 42.0110 -100.1240 64° Northeast 504 580 35,000  Level FlightAware ADS-B
Mon 09:06:41 PM 42.0969 -99.8172 64° Northeast 516 594 35,000  Level Minneapolis Center
Mon 09:07:43 PM 42.1556 -99.6403 66° East 516 594 35,000  Level Minneapolis Center
Mon 09:08:13 PM 42.1908 -99.5331 66° East 517 595 35,000  Level Denver Center
Mon 09:09:15 PM 42.2506 -99.3561 65° Northeast 516 594 35,000  Level Denver Center
Mon 09:09:47 PM 42.2731 -99.2867 66° East 515 593 35,000  Level Minneapolis Center
Mon 09:10:49 PM 42.3439 -99.0731 66° East 516 594 35,000  Level Minneapolis Center
Mon 09:11:51 PM 42.4022 -98.8950 66° East 516 594 35,000  Level Minneapolis Center
Mon 09:13:55 PM 42.5289 -98.5947 60° Northeast 511 588 35,000  Level Minneapolis Center
Mon 09:15:00 PM 42.6248 -98.4420 49° Northeast  Level FlightAware Approximate
Mon 09:15:59 PM 42.7303 -98.2767 49° Northeast 503 579 35,000  Level Minneapolis Center
Mon 09:21:22 PM 43.2220 -97.4870 49° Northeast 495 570 35,000  Level FlightAware ADS-B
Mon 09:22:02 PM 43.2830 -97.3860 50° Northeast 495 570 35,000  Level FlightAware ADS-B
Mon 09:22:42 PM 43.3430 -97.2890 50° Northeast 494 568 35,000  Level FlightAware ADS-B
Mon 09:23:27 PM 43.4070 -97.1830 50° Northeast 494 568 35,000  Level FlightAware ADS-B
Mon 09:24:07 PM 43.4660 -97.0860 50° Northeast 494 568 35,000  Level FlightAware ADS-B
Mon 09:24:52 PM 43.5330 -96.9740 50° Northeast 494 568 35,000  Level FlightAware ADS-B
Mon 09:25:32 PM 43.5920 -96.8780 50° Northeast 492 566 35,000  Level FlightAware ADS-B
Mon 09:26:17 PM 43.6570 -96.7730 49° Northeast 492 566 35,000  Level FlightAware ADS-B
Mon 09:26:57 PM 43.7180 -96.6830 47° Northeast 492 566 35,000  Level FlightAware ADS-B
Mon 09:27:37 PM 43.7830 -96.5900 46° Northeast 491 565 35,000  Level FlightAware ADS-B
Mon 09:28:22 PM 43.8520 -96.4890 47° Northeast 490 564 35,000  Level FlightAware ADS-B
Mon 09:29:02 PM 43.9130 -96.4020 46° Northeast 489 563 35,000  Level FlightAware ADS-B
Mon 09:29:42 PM 43.9770 -96.3080 47° Northeast 488 562 35,000  Level FlightAware ADS-B
Mon 09:30:27 PM 44.0470 -96.2070 46° Northeast 488 562 35,000  Level FlightAware ADS-B
Mon 09:31:07 PM 44.1110 -96.1140 46° Northeast 487 560 35,000  Level FlightAware ADS-B
Mon 09:31:52 PM 44.1780 -96.0140 47° Northeast 485 558 35,000  Level FlightAware ADS-B
Mon 09:32:32 PM 44.2400 -95.9230 46° Northeast 484 557 35,000  Level FlightAware ADS-B
Mon 09:33:17 PM 44.3110 -95.8190 46° Northeast 485 558 35,000  Level FlightAware ADS-B
Mon 09:33:57 PM 44.3730 -95.7270 47° Northeast 485 558 35,000  Level FlightAware ADS-B
Mon 09:34:37 PM 44.4350 -95.6350 47° Northeast 485 558 35,000  Level FlightAware ADS-B
Mon 09:35:17 PM 44.4970 -95.5430 47° Northeast 483 556 35,000  Level FlightAware ADS-B
Mon 09:36:02 PM 44.5630 -95.4440 47° Northeast 481 554 35,000  Level FlightAware ADS-B
Mon 09:36:42 PM 44.6230 -95.3530 47° Northeast 482 555 35,000  Level FlightAware ADS-B
Mon 09:37:27 PM 44.6930 -95.2460 47° Northeast 484 557 35,000  Level FlightAware ADS-B
Mon 09:38:07 PM 44.7540 -95.1540 47° Northeast 484 557 35,000  Level FlightAware ADS-B
Mon 09:38:52 PM 44.8220 -95.0520 47° Northeast 483 556 35,000  Level FlightAware ADS-B
Mon 09:39:32 PM 44.8830 -94.9570 48° Northeast 481 554 35,000  Level FlightAware ADS-B
Mon 09:40:12 PM 44.9320 -94.8620 54° Northeast 474 545 35,000  Level FlightAware ADS-B
Mon 09:40:57 PM 44.9790 -94.7390 62° Northeast 471 542 35,000  Level FlightAware ADS-B
Mon 09:41:37 PM 45.0190 -94.6290 63° Northeast 470 541 35,000  Level FlightAware ADS-B
Mon 09:42:22 PM 45.0650 -94.5040 62° Northeast 470 541 35,000  Level FlightAware ADS-B
Mon 09:43:02 PM 45.1050 -94.3940 63° Northeast 471 542 35,000  Level FlightAware ADS-B
Mon 09:43:42 PM 45.1430 -94.2890 63° Northeast 472 543 35,000  Level FlightAware ADS-B
Mon 09:44:27 PM 45.1880 -94.1650 63° Northeast 473 544 35,000  Level FlightAware ADS-B
Mon 09:45:07 PM 45.2270 -94.0530 64° Northeast 472 543 35,000  Level FlightAware ADS-B
Mon 09:45:52 PM 45.2730 -93.9260 63° Northeast 471 542 35,000  Level FlightAware ADS-B
Mon 09:46:32 PM 45.3120 -93.8140 64° Northeast 472 543 35,000  Level FlightAware ADS-B
Mon 09:47:12 PM 45.3510 -93.7060 63° Northeast 472 543 35,000  Level FlightAware ADS-B
Mon 09:47:57 PM 45.3940 -93.5830 63° Northeast 474 545 35,000  Level FlightAware ADS-B
Mon 09:48:37 PM 45.4340 -93.4700 63° Northeast 473 544 35,000  Level FlightAware ADS-B
Mon 09:49:17 PM 45.4720 -93.3610 64° Northeast 474 545 35,000  Level FlightAware ADS-B
Mon 09:50:02 PM 45.5170 -93.2320 63° Northeast 474 545 35,000  Level FlightAware ADS-B
Mon 09:50:42 PM 45.5550 -93.1200 64° Northeast 475 547 35,000  Level FlightAware ADS-B
Mon 09:51:27 PM 45.5980 -92.9950 64° Northeast 476 548 35,000  Level FlightAware ADS-B
Mon 09:52:07 PM 45.6370 -92.8820 64° Northeast 477 549 35,000  Level FlightAware ADS-B
Mon 09:52:47 PM 45.6760 -92.7700 63° Northeast 477 549 35,000  Level FlightAware ADS-B
Mon 09:53:32 PM 45.7200 -92.6400 64° Northeast 477 549 35,000  Level FlightAware ADS-B
Mon 09:54:12 PM 45.7580 -92.5270 64° Northeast 477 549 35,000  Level FlightAware ADS-B
Mon 09:54:57 PM 45.8010 -92.4010 64° Northeast 478 550 35,000  Level FlightAware ADS-B
Mon 09:55:37 PM 45.8390 -92.2870 64° Northeast 478 550 35,000  Level FlightAware ADS-B
Mon 09:56:22 PM 45.8820 -92.1560 65° Northeast 479 551 35,000  Level FlightAware ADS-B
Mon 09:57:02 PM 45.9200 -92.0430 64° Northeast 480 552 35,000  Level FlightAware ADS-B
Mon 09:57:47 PM 45.9630 -91.9140 64° Northeast 480 552 35,000  Level FlightAware ADS-B
Mon 09:58:27 PM 45.9990 -91.8030 65° Northeast 481 554 35,000  Level FlightAware ADS-B
Mon 09:59:07 PM 46.0380 -91.6850 65° Northeast 480 552 35,000  Level FlightAware ADS-B
Mon 09:59:52 PM 46.0820 -91.5500 65° Northeast 481 554 35,000  Level FlightAware ADS-B
Mon 10:00:32 PM 46.1190 -91.4350 65° Northeast 481 554 35,000  Level FlightAware ADS-B
Mon 10:01:17 PM 46.1610 -91.3060 65° Northeast 483 556 35,000  Level FlightAware ADS-B
Mon 10:01:57 PM 46.1980 -91.1900 65° Northeast 483 556 35,000  Level FlightAware ADS-B
Mon 10:02:37 PM 46.2360 -91.0730 65° Northeast 484 557 35,000  Level FlightAware ADS-B
Mon 10:03:22 PM 46.2780 -90.9400 65° Northeast 485 558 35,000  Level FlightAware ADS-B
Mon 10:04:02 PM 46.3150 -90.8220 66° East 485 558 35,000  Level FlightAware ADS-B
Mon 10:04:42 PM 46.3530 -90.7020 65° Northeast 486 559 35,000  Level FlightAware ADS-B
Mon 10:05:27 PM 46.3930 -90.5730 66° East 486 559 35,000  Level FlightAware ADS-B
Mon 10:06:07 PM 46.4300 -90.4560 65° Northeast 487 560 35,000  Level FlightAware ADS-B
Mon 10:06:52 PM 46.4740 -90.3160 65° Northeast 487 560 35,000  Level FlightAware ADS-B
Mon 10:07:32 PM 46.5090 -90.2010 66° East 488 562 35,000  Level FlightAware ADS-B
Mon 10:08:12 PM 46.5550 -90.0890 59° Northeast 489 563 35,000  Level FlightAware ADS-B
Mon 10:08:57 PM 46.6200 -89.9750 50° Northeast 490 564 35,000  Level FlightAware ADS-B
Mon 10:09:37 PM 46.6770 -89.8750 50° Northeast 491 565 35,000  Level FlightAware ADS-B
Mon 10:10:22 PM 46.7430 -89.7620 50° Northeast 491 565 35,000  Level FlightAware ADS-B
Mon 10:11:02 PM 46.8020 -89.6590 50° Northeast 492 566 35,000  Level FlightAware ADS-B
Mon 10:11:47 PM 46.8670 -89.5450 50° Northeast 491 565 35,000  Level FlightAware ADS-B
Mon 10:12:17 PM 46.9080 -89.4720 51° Northeast 492 566 35,000  Level FlightAware ADS-B
Mon 10:13:02 PM 46.9680 -89.3680 50° Northeast 492 566 35,000  Level FlightAware ADS-B
Mon 10:13:52 PM 47.0300 -89.2590 50° Northeast 492 566 35,000  Level FlightAware ADS-B
Mon 10:14:32 PM 47.0800 -89.1720 50° Northeast 492 566 35,000  Level FlightAware ADS-B
Mon 10:15:17 PM 47.1690 -89.0100 51° Northeast 493 567 35,000  Level FlightAware ADS-B
Mon 10:15:57 PM 47.2230 -88.9140 50° Northeast 493 567 35,000  Level FlightAware ADS-B
Mon 10:16:37 PM 47.2730 -88.8260 50° Northeast 493 567 35,000  Level FlightAware ADS-B
Mon 10:17:17 PM 47.3230 -88.7390 50° Northeast 493 567 35,000  Level FlightAware ADS-B
Mon 10:17:57 PM 47.3730 -88.6510 50° Northeast 493 567 35,000  Level FlightAware ADS-B
Mon 10:18:47 PM 47.4350 -88.5410 50° Northeast 493 567 35,000  Level FlightAware ADS-B
Mon 10:19:27 PM 47.5280 -88.3590 53° Northeast 488 562 35,000  Level FlightAware ADS-B
Mon 10:20:07 PM 47.5850 -88.2540 51° Northeast 486 559 35,000  Level FlightAware ADS-B
Mon 10:21:07 PM 47.6640 -88.1100 51° Northeast 485 558 35,000  Level FlightAware ADS-B
Mon 10:21:47 PM 47.7250 -87.9960 51° Northeast 474 545 35,000  Level FlightAware ADS-B
Mon 10:22:27 PM 47.7750 -87.9030 51° Northeast 473 544 35,000  Level FlightAware ADS-B
Mon 10:23:07 PM 47.8220 -87.8170 51° Northeast 473 544 35,000  Level FlightAware ADS-B
Mon 10:23:47 PM 47.8690 -87.7310 51° Northeast 473 544 35,000  Level FlightAware ADS-B
Mon 10:24:37 PM 47.9270 -87.6230 51° Northeast 473 544 35,000  Level FlightAware ADS-B
Mon 10:25:17 PM 47.9740 -87.5370 51° Northeast 473 544 35,000  Level FlightAware ADS-B
Mon 10:25:57 PM 48.0210 -87.4500 51° Northeast 473 544 35,000  Level FlightAware ADS-B
Mon 10:26:37 PM 48.0680 -87.3640 51° Northeast 473 544 35,000  Level FlightAware ADS-B
Mon 10:27:17 PM 48.1150 -87.2770 51° Northeast 473 544 35,000  Level FlightAware ADS-B
Mon 10:28:07 PM 48.1730 -87.1690 51° Northeast 473 544 35,000  Level FlightAware ADS-B
Mon 10:28:47 PM 48.2200 -87.0820 51° Northeast 473 544 35,000  Level FlightAware ADS-B
Mon 10:29:27 PM 48.2670 -86.9950 51° Northeast 473 544 35,000  Level FlightAware ADS-B
Mon 10:30:07 PM 48.3140 -86.9080 51° Northeast 473 544 35,000  Level FlightAware ADS-B
Mon 10:30:47 PM 48.3600 -86.8210 51° Northeast 473 544 35,000  Level FlightAware ADS-B
Mon 10:31:37 PM 48.4190 -86.7130 51° Northeast 473 544 35,000  Level FlightAware ADS-B
Mon 10:32:37 PM 48.5667 -86.2833 51° Northeast 470 541 35,000  Level Winnipeg Center
Mon 10:33:37 PM 48.6500 -86.1333 50° Northeast 470 541 35,000  Level Winnipeg Center
Mon 10:34:37 PM 48.7333 -85.9667 53° Northeast 470 541 35,000  Level Winnipeg Center
Mon 10:35:37 PM 48.8167 -85.8167 50° Northeast 470 541 35,000  Level Winnipeg Center
Mon 10:36:37 PM 48.8833 -85.6500 59° Northeast 470 541 35,000  Level Winnipeg Center
Mon 10:37:37 PM 48.9667 -85.4667 55° Northeast 480 552 35,000  Level Winnipeg Center
Mon 10:38:37 PM 49.0333 -85.3333 53° Northeast 480 552 35,000  Level Winnipeg Center
Mon 10:39:37 PM 49.1167 -85.1500 55° Northeast 480 552 35,000  Level Winnipeg Center
Mon 10:40:37 PM 49.2000 -85.0000 50° Northeast 480 552 35,000  Level Winnipeg Center
Mon 10:41:37 PM 49.2833 -84.8333 52° Northeast 480 552 35,000  Level Winnipeg Center
Mon 10:42:37 PM 49.3500 -84.6833 56° Northeast 490 564 35,000  Level Winnipeg Center
Mon 10:43:37 PM 49.4333 -84.5000 55° Northeast 490 564 35,000 400 Level Winnipeg Center
Mon 10:44:37 PM 49.5167 -84.3167 55° Northeast 490 564 35,800 950 Climbing Winnipeg Center
Mon 10:45:37 PM 49.6000 -84.1667 49° Northeast 490 564 36,900 632 Climbing Winnipeg Center
Mon 10:46:31 PM 49.6833 -84.0833 33° Northeast 480 552 37,000 53 Climbing Montreal Center
Mon 10:47:31 PM 49.7667 -83.9167 52° Northeast 480 552 37,000  Level Montreal Center
Mon 10:48:31 PM 49.8500 -83.7500 52° Northeast 490 564 37,000  Level Montreal Center
Mon 10:49:31 PM 49.9167 -83.5833 58° Northeast 490 564 37,000  Level Montreal Center
Mon 10:50:31 PM 50.0000 -83.4000 55° Northeast 490 564 37,000  Level Montreal Center
Mon 10:51:31 PM 50.0833 -83.2333 52° Northeast 490 564 37,000  Level Montreal Center
Mon 10:52:31 PM 50.1667 -83.0667 52° Northeast 490 564 37,000  Level Montreal Center
Mon 10:53:31 PM 50.2333 -82.8833 60° Northeast 490 564 37,000  Level Montreal Center
Mon 10:54:31 PM 50.3167 -82.6833 57° Northeast 490 564 37,000  Level Montreal Center
Mon 10:55:31 PM 50.4000 -82.5167 52° Northeast 490 564 37,000  Level Montreal Center
Mon 10:56:31 PM 50.4667 -82.3333 60° Northeast 500 575 37,000  Level Montreal Center
Mon 10:57:31 PM 50.5500 -82.1667 52° Northeast 500 575 37,000  Level Montreal Center
Mon 10:58:31 PM 50.6333 -81.9667 57° Northeast 500 575 37,000  Level Montreal Center
Mon 10:59:31 PM 50.7000 -81.7833 60° Northeast 500 575 37,000  Level Montreal Center
Mon 11:00:31 PM 50.7833 -81.6167 52° Northeast 500 575 37,000  Level Montreal Center
Mon 11:01:31 PM 50.8667 -81.4167 57° Northeast 510 587 37,000  Level Montreal Center
Mon 11:02:31 PM 50.9333 -81.2333 60° Northeast 510 587 37,000  Level Montreal Center
Mon 11:03:31 PM 51.0167 -81.0500 54° Northeast 510 587 37,000  Level Montreal Center
Mon 11:04:31 PM 51.1000 -80.8667 54° Northeast 510 587 37,000  Level Montreal Center
Mon 11:05:31 PM 51.1833 -80.6667 56° Northeast 510 587 37,000  Level Montreal Center
Mon 11:06:31 PM 51.2500 -80.4833 60° Northeast 510 587 37,000  Level Montreal Center
Mon 11:07:31 PM 51.3500 -80.2833 51° Northeast 510 587 37,000  Level Montreal Center
Mon 11:08:31 PM 51.4167 -80.1000 60° Northeast 510 587 37,000  Level Montreal Center
Mon 11:09:31 PM 51.4833 -79.8833 64° Northeast 510 587 37,000  Level Montreal Center
Mon 11:10:31 PM 51.5667 -79.7000 54° Northeast 510 587 37,000  Level Montreal Center
Mon 11:12:31 PM 51.7167 -79.3000 59° Northeast 510 587 37,000  Level Montreal Center
Mon 11:13:31 PM 51.7833 -79.1167 59° Northeast 510 587 37,000  Level Montreal Center
Mon 11:14:31 PM 51.8667 -78.9167 56° Northeast 510 587 37,000  Level Montreal Center
Mon 11:15:31 PM 51.9500 -78.7167 56° Northeast 510 587 37,000  Level Montreal Center
Mon 11:16:31 PM 52.0167 -78.5167 61° Northeast 510 587 37,000  Level Montreal Center
Mon 11:17:31 PM 52.0833 -78.3167 61° Northeast 510 587 37,000  Level Montreal Center
Mon 11:18:31 PM 52.1667 -78.1333 53° Northeast 510 587 37,000  Level Montreal Center
Mon 11:19:31 PM 52.2333 -77.9167 63° Northeast 520 598 37,000  Level Montreal Center
Mon 11:20:31 PM 52.3167 -77.7000 58° Northeast 520 598 37,000  Level Montreal Center
Mon 11:21:31 PM 52.3833 -77.4833 63° Northeast 520 598 37,000  Level Montreal Center
Mon 11:22:31 PM 52.4667 -77.2833 56° Northeast 520 598 37,000  Level Montreal Center
Mon 11:23:31 PM 52.5500 -77.0667 58° Northeast 530 610 37,000  Level Montreal Center
Mon 11:24:31 PM 52.6167 -76.8833 59° Northeast 530 610 37,000  Level Montreal Center
Mon 11:25:31 PM 52.6833 -76.6500 65° Northeast 520 598 37,000  Level Montreal Center
Mon 11:26:31 PM 52.7667 -76.4667 53° Northeast 520 598 37,000  Level Montreal Center
Mon 11:27:31 PM 52.8333 -76.2500 63° Northeast 530 610 37,000  Level Montreal Center
Mon 11:28:31 PM 52.9000 -76.0167 65° Northeast 520 598 37,000  Level Montreal Center
Mon 11:29:31 PM 52.9667 -75.8167 61° Northeast 530 610 37,000  Level Montreal Center
Mon 11:30:31 PM 53.0500 -75.6000 57° Northeast 530 610 37,000  Level Montreal Center
Mon 11:31:31 PM 53.1167 -75.3667 64° Northeast 530 610 37,000  Level Montreal Center
Mon 11:32:31 PM 53.2000 -75.1500 57° Northeast 530 610 37,000  Level Montreal Center
Mon 11:33:31 PM 53.2667 -74.9500 61° Northeast 530 610 37,000  Level Montreal Center
Mon 11:34:31 PM 53.3333 -74.7500 61° Northeast 520 598 37,000  Level Montreal Center
Mon 11:35:31 PM 53.4000 -74.5167 64° Northeast 530 610 37,000  Level Montreal Center
Mon 11:36:31 PM 53.4833 -74.3000 57° Northeast 530 610 37,000  Level Montreal Center
Mon 11:37:31 PM 53.5500 -74.1000 61° Northeast 530 610 37,000  Level Montreal Center
Mon 11:38:31 PM 53.6000 -73.8667 70° East 530 610 37,000  Level Montreal Center
Mon 11:39:31 PM 53.6833 -73.6333 59° Northeast 530 610 37,000  Level Montreal Center
Mon 11:40:31 PM 53.7500 -73.4000 64° Northeast 530 610 37,000  Level Montreal Center
Mon 11:41:31 PM 53.8333 -73.1667 59° Northeast 530 610 37,000  Level Montreal Center
Mon 11:42:31 PM 53.8833 -72.9667 67° East 530 610 37,000  Level Montreal Center
Mon 11:43:31 PM 53.9500 -72.7333 64° Northeast 540 621 37,000  Level Montreal Center
Mon 11:44:31 PM 54.0333 -72.5000 59° Northeast 540 621 37,000  Level Montreal Center
Mon 11:45:31 PM 54.0833 -72.2667 70° East 540 621 37,000  Level Montreal Center
Mon 11:46:31 PM 54.1500 -72.0167 65° Northeast 540 621 37,000  Level Montreal Center
Mon 11:47:31 PM 54.2333 -71.8167 54° Northeast 540 621 37,000  Level Montreal Center
Mon 11:48:31 PM 54.2833 -71.5833 70° East 540 621 37,000  Level Montreal Center
Mon 11:49:31 PM 54.3500 -71.3333 65° Northeast 540 621 37,000  Level Montreal Center
Mon 11:50:31 PM 54.4167 -71.1000 64° Northeast 540 621 37,000  Level Montreal Center
Mon 11:51:31 PM 54.4833 -70.8667 64° Northeast 540 621 37,000  Level Montreal Center
Mon 11:52:31 PM 54.5500 -70.6167 65° Northeast 540 621 37,000  Level Montreal Center
Mon 11:53:31 PM 54.6167 -70.3833 64° Northeast 540 621 37,000  Level Montreal Center
Mon 11:54:31 PM 54.6833 -70.1667 62° Northeast 540 621 37,000  Level Montreal Center
Mon 11:55:31 PM 54.7333 -69.9167 71° East 540 621 37,000  Level Montreal Center
Mon 11:56:31 PM 54.8000 -69.6833 64° Northeast 540 621 37,000  Level Montreal Center
Mon 11:57:31 PM 54.8667 -69.4333 65° Northeast 540 621 37,000  Level Montreal Center
Mon 11:58:31 PM 54.9167 -69.1833 71° East 530 610 37,000  Level Montreal Center
Mon 11:59:31 PM 54.9833 -68.9333 65° Northeast 540 621 37,000  Level Montreal Center
Tue 12:00:31 AM 55.0500 -68.7000 63° Northeast 550 633 37,000  Level Montreal Center
Tue 12:01:31 AM 55.1167 -68.4500 65° Northeast 550 633 37,000  Level Montreal Center
Tue 12:02:31 AM 55.1667 -68.2000 71° East 540 621 37,000  Level Montreal Center
Tue 12:03:31 AM 55.2333 -67.9500 65° Northeast 550 633 37,000  Level Montreal Center
Tue 12:04:31 AM 55.2833 -67.7333 68° East 550 633 37,000  Level Montreal Center
Tue 12:05:31 AM 55.3333 -67.4833 71° East 540 621 37,000  Level Montreal Center
Tue 12:06:31 AM 55.4000 -67.2333 65° Northeast 550 633 37,000  Level Montreal Center
Tue 12:07:31 AM 55.4500 -66.9833 70° East 550 633 37,000  Level Montreal Center
Tue 12:08:31 AM 55.5000 -66.7333 70° East 530 610 37,000  Level Montreal Center
Tue 12:09:31 AM 55.5833 -66.4667 61° Northeast 560 644 37,000  Level Montreal Center
Tue 12:10:31 AM 55.6500 -66.2167 65° Northeast 540 621 37,000  Level Montreal Center
Tue 12:11:31 AM 55.7000 -65.9833 69° East 550 633 37,000  Level Montreal Center
Tue 12:12:31 AM 55.7667 -65.7333 65° Northeast 550 633 37,000  Level Montreal Center
Tue 12:13:31 AM 55.8333 -65.4833 65° Northeast 540 621 37,000  Level Montreal Center
Tue 12:14:31 AM 55.8833 -65.2500 69° East 540 621 37,000  Level Montreal Center
Tue 12:15:31 AM 55.9500 -64.9833 66° East 530 610 37,000  Level Montreal Center
Tue 12:16:31 AM 56.0000 -64.7667 67° East 540 621 37,000  Level Montreal Center
Tue 12:17:31 AM 56.0667 -64.5000 66° East 530 610 37,000  Level Montreal Center
Tue 12:18:31 AM 56.1333 -64.2667 63° Northeast 530 610 37,000  Level Montreal Center
Tue 12:19:31 AM 56.1667 -64.0333 76° East 510 587 37,000  Level Montreal Center
Tue 12:20:31 AM 56.2333 -63.7833 64° Northeast 510 587 37,000  Level Montreal Center
Tue 12:20:55 AM 56.2667 -63.7500 29° Northeast 520 598 37,000  Level Gander Center
Tue 12:21:26 AM 56.2833 -63.6000 79° East 520 598 37,000  Level Gander Center
Tue 12:22:26 AM 56.3333 -63.3833 67° East 520 598 37,000  Level Gander Center
Tue 12:23:26 AM 56.3833 -63.1500 69° East 510 587 37,000  Level Gander Center
Tue 12:23:55 AM 56.4167 -63.0333 63° Northeast 500 575 37,000  Level Gander Center
Tue 12:24:55 AM 56.4833 -62.8000 63° Northeast 510 587 37,000  Level Gander Center
Tue 12:25:26 AM 56.5000 -62.6667 77° East 510 587 37,000  Level Gander Center
Tue 12:26:26 AM 56.5500 -62.4333 69° East 510 587 37,000  Level Gander Center
Tue 12:26:55 AM 56.5833 -62.3167 63° Northeast 510 587 37,000  Level Gander Center
Tue 12:27:26 AM 56.6000 -62.1833 77° East 510 587 37,000  Level Gander Center
Tue 12:28:26 AM 56.6500 -61.9500 69° East 500 575 37,000  Level Gander Center
Tue 12:29:26 AM 56.7000 -61.7000 70° East 510 587 37,000  Level Gander Center
Tue 12:30:26 AM 56.7500 -61.4333 71° East 510 587 37,000  Level Gander Center
Tue 12:31:26 AM 56.8000 -61.2167 67° East 530 610 37,000  Level Gander Center
Tue 12:32:26 AM 56.8500 -60.9833 69° East 510 587 37,000  Level Gander Center
Tue 12:33:26 AM 56.9000 -60.7333 70° East 510 587 37,000  Level Gander Center
Tue 12:33:55 AM 56.9333 -60.6167 62° Northeast 510 587 37,000  Level Gander Center
Tue 12:34:26 AM 56.9500 -60.4833 77° East 510 587 37,000  Level Gander Center
Tue 12:35:26 AM 57.0000 -60.2667 67° East 500 575 37,000  Level Gander Center
Tue 12:36:26 AM 57.0500 -60.0000 71° East 500 575 37,000  Level Gander Center
Tue 12:37:26 AM 57.1000 -59.7833 67° East 520 598 37,000  Level Gander Center
Tue 12:39:31 AM 57.1833 -59.1667 76° East 540 621 37,000  Level Montreal Center
Tue 12:39:55 AM 57.1833 -59.1500 90° East 520 598 37,000  Level Gander Center
Tue 12:40:26 AM 57.2000 -58.9667 80° East 530 610 37,000  Level Gander Center
Tue 12:41:26 AM 57.2333 -58.7167 76° East 540 621 37,000  Level Gander Center
Tue 12:42:26 AM 57.2667 -58.4500 77° East 540 621 37,000  Level Gander Center
Tue 12:43:26 AM 57.3000 -58.1667 78° East 560 644 37,000  Level Gander Center
Tue 12:43:55 AM 57.3167 -58.0333 77° East 550 633 37,000  Level Gander Center
Tue 12:44:26 AM 57.3333 -57.8833 78° East 540 621 37,000  Level Gander Center
Tue 12:44:55 AM 57.3333 -57.7833 90° East 540 621 37,000  Level Gander Center
Tue 12:45:26 AM 57.3500 -57.6000 80° East 540 621 37,000  Level Gander Center
Tue 12:45:55 AM 57.3667 -57.5000 73° East 540 621 37,000  Level Gander Center
Tue 12:46:26 AM 57.4000 -57.3500 68° East 540 621 37,000  Level Gander Center
Tue 12:47:26 AM 57.4167 -57.0667 84° East 540 621 37,000  Level Gander Center
Tue 12:48:26 AM 57.4667 -56.7833 72° East 540 621 37,000  Level Gander Center
Tue 12:49:26 AM 57.4833 -56.5333 83° East 540 621 37,000  Level Gander Center
Tue 12:50:26 AM 57.5167 -56.2167 79° East 540 621 37,000  Level Gander Center
Tue 12:51:26 AM 57.5500 -55.9333 78° East 540 621 37,000  Level Gander Center
Tue 12:52:26 AM 57.5667 -55.6833 83° East 540 621 37,000  Level Gander Center
Tue 12:53:26 AM 57.6000 -55.4000 78° East 530 610 37,000  Level Gander Center
Tue 12:54:26 AM 57.6333 -55.1333 77° East 530 610 37,000  Level Gander Center
Tue 12:55:26 AM 57.6500 -54.8500 84° East 530 610 37,000  Level Gander Center
Tue 12:56:26 AM 57.6667 -54.5667 84° East 540 621 37,000  Level Gander Center
Tue 12:57:26 AM 57.7000 -54.3167 76° East 540 621 37,000  Level Gander Center
Tue 12:58:26 AM 57.7167 -54.0333 84° East 530 610 37,000  Level Gander Center
Tue 12:59:26 AM 57.7333 -53.7500 84° East 530 610 37,000  Level Gander Center
Tue 12:59:55 AM 57.7500 -53.6500 73° East 530 610 37,000  Level Gander Center
Tue 01:02:00 AM 57.7928 -53.1235 81° East  Level FlightAware Approximate
Tue 01:04:52 AM 57.8500 -52.2667 83° East 530 610 37,000  Level Gander Center
Tue 01:05:52 AM 57.8667 -51.9833 84° East 530 610 37,000  Level Gander Center
Tue 01:06:52 AM 57.8833 -51.7333 83° East 530 610 37,000  Level Gander Center
Tue 01:07:52 AM 57.9000 -51.4333 84° East 530 610 37,000  Level Gander Center
Tue 01:08:52 AM 57.9167 -51.1833 83° East 530 610 37,000  Level Gander Center
Tue 01:09:00 AM 57.9204 -51.3458 82° East  Level FlightAware Approximate
Tue 01:09:52 AM 57.9333 -50.9000 84° East 530 610 37,000  Level Gander Center
Tue 01:10:00 AM 57.9366 -51.0909 83° East  Level FlightAware Approximate
Tue 01:10:52 AM 57.9333 -50.6333 90° East 530 610 37,000  Level Gander Center
Tue 01:11:52 AM 57.9667 -50.3500 77° East 530 610 37,000  Level Gander Center
Tue 01:12:52 AM 57.9833 -50.0833 83° East 530 610 37,000  Level Gander Center
Tue 01:13:52 AM 57.9833 -49.8000 90° East 520 598 37,000  Level Gander Center
Tue 01:14:52 AM 58.0000 -49.5333 83° East 520 598 37,000  Level Gander Center
Tue 01:15:52 AM 58.0167 -49.2833 83° East 520 598 37,000  Level Gander Center
Tue 01:16:52 AM 58.0167 -49.0000 90° East 520 598 37,000  Level Gander Center
Tue 01:17:52 AM 58.0333 -48.7333 83° East 520 598 37,000  Level Gander Center
Tue 01:18:52 AM 58.0333 -48.4500 90° East 520 598 37,000  Level Gander Center
Tue 01:19:52 AM 58.0333 -48.1833 90° East 520 598 37,000  Level Gander Center
Tue 01:20:52 AM 58.0500 -47.9000 84° East 520 598 37,000  Level Gander Center
Tue 01:21:52 AM 58.0500 -47.6500 90° East 520 598 37,000  Level Gander Center
Tue 01:22:52 AM 58.0500 -47.3500 90° East 520 598 37,000  Level Gander Center
Tue 01:23:52 AM 58.0667 -47.1000 83° East 520 598 37,000  Level Gander Center
Tue 01:24:52 AM 58.0667 -46.8000 90° East 520 598 37,000  Level Gander Center
Tue 01:25:52 AM 58.0667 -46.5500 90° East 520 598 37,000  Level Gander Center
Tue 01:26:52 AM 58.0667 -46.2667 90° East 520 598 37,000  Level Gander Center
Tue 01:27:52 AM 58.0667 -46.0000 90° East 520 598 37,000  Level Gander Center
Tue 01:28:52 AM 58.0667 -45.7167 90° East 520 598 37,000  Level Gander Center
Tue 01:29:52 AM 58.0667 -45.4500 90° East 520 598 37,000  Level Gander Center
Tue 01:30:52 AM 58.0833 -45.2000 83° East 520 598 37,000  Level Gander Center
Tue 01:31:52 AM 58.0667 -44.9000 96° East 520 598 37,000  Level Gander Center
Tue 01:32:52 AM 58.0833 -44.6500 83° East 520 598 37,000  Level Gander Center
Tue 01:33:52 AM 58.0667 -44.3667 96° East 520 598 37,000  Level Gander Center
Tue 01:34:52 AM 58.0667 -44.1000 90° East 520 598 37,000  Level Gander Center
Tue 01:35:52 AM 58.0667 -43.8167 90° East 520 598 37,000  Level Gander Center
Tue 01:36:52 AM 58.0667 -43.5500 90° East 520 598 37,000  Level Gander Center
Tue 01:37:52 AM 58.0667 -43.2667 90° East 520 598 37,000  Level Gander Center
Tue 01:38:52 AM 58.0667 -43.0167 90° East 520 598 37,000  Level Gander Center
Tue 01:39:52 AM 58.0500 -42.7167 96° East 520 598 37,000  Level Gander Center
Tue 01:40:52 AM 58.0500 -42.4667 90° East 520 598 37,000  Level Gander Center
Tue 01:41:52 AM 58.0500 -42.2000 90° East 520 598 37,000  Level Gander Center
Tue 01:42:52 AM 58.0333 -41.9167 96° East 520 598 37,000  Level Gander Center
Tue 01:43:52 AM 58.0333 -41.6667 90° East 520 598 37,000  Level Gander Center
Tue 01:44:52 AM 58.0167 -41.3833 96° East 520 598 37,000  Level Gander Center
Tue 01:45:52 AM 58.0167 -41.1167 90° East 520 598 37,000  Level Gander Center
Tue 01:46:52 AM 58.0000 -40.8333 96° East 520 598 37,000  Level Gander Center
Tue 01:47:52 AM 58.0000 -40.5833 90° East 520 598 37,000  Level Gander Center
Tue 01:48:52 AM 58.0000 -40.3167 90° East 510 587 37,000  Level Gander Center
Tue 01:49:52 AM 57.9833 -40.0333 96° East 520 598 37,000  Level Gander Center
Tue 01:50:52 AM 57.9667 -39.7500 96° East 520 598 37,000  Level Gander Center
Tue 01:51:52 AM 57.9500 -39.5000 97° East 520 598 37,000  Level Gander Center
Tue 01:52:52 AM 57.9333 -39.2500 97° East 520 598 37,000  Level Gander Center
Tue 01:53:52 AM 57.9167 -38.9667 96° East 520 598 37,000  Level Gander Center
Tue 01:54:52 AM 57.9000 -38.6833 96° East 520 598 37,000 150 Level Gander Center
Tue 01:55:52 AM 57.8833 -38.4333 97° East 520 598 37,300 500 Climbing Gander Center
Tue 01:56:52 AM 57.8667 -38.1833 97° East 520 598 38,000 350 Climbing Gander Center
Tue 01:57:52 AM 57.8500 -37.9000 96° East 520 598 38,000  Level Gander Center
Tue 01:58:52 AM 57.8167 -37.6500 104° East 520 598 38,000  Level Gander Center
Tue 01:59:52 AM 57.8000 -37.3667 96° East 520 598 38,000  Level Gander Center
Tue 02:00:52 AM 57.7833 -37.0833 96° East 520 598 38,000  Level Gander Center
Tue 02:01:52 AM 57.7500 -36.8500 105° East 520 598 38,000  Level Gander Center
Tue 02:02:52 AM 57.7333 -36.6000 97° East 520 598 38,000  Level Gander Center
Tue 02:03:52 AM 57.7167 -36.3500 97° East 520 598 38,000  Level Gander Center
Tue 02:04:52 AM 57.6833 -36.0833 103° East 520 598 38,000 11 Level Gander Center
Tue 02:06:00 AM 57.6583 -35.7981 99° East  Level FlightAware Approximate
Tue 02:13:00 AM 57.4898 -34.0459 99° East  Level FlightAware Approximate
Tue 02:14:00 AM 57.4638 -33.7969 101° East  Level FlightAware Approximate
Tue 02:15:00 AM 57.4372 -33.5483 101° East  Level FlightAware Approximate
Tue 02:16:00 AM 57.4102 -33.3001 101° East  Level FlightAware Approximate
Tue 02:17:00 AM 57.3827 -33.0522 102° East  Level FlightAware Approximate
Tue 02:18:00 AM 57.3547 -32.8047 102° East  Level FlightAware Approximate
Tue 02:19:00 AM 57.3262 -32.5576 102° East  Level FlightAware Approximate
Tue 02:20:00 AM 57.2973 -32.3108 102° East  Level FlightAware Approximate
Tue 02:21:00 AM 57.2678 -32.0645 102° East  Level FlightAware Approximate
Tue 02:22:00 AM 57.2379 -31.8186 103° East  Level FlightAware Approximate
Tue 02:23:00 AM 57.2075 -31.5730 103° East  Level FlightAware Approximate
Tue 02:24:00 AM 57.1766 -31.3279 103° East  Level FlightAware Approximate
Tue 02:25:00 AM 57.1452 -31.0832 103° East  Level FlightAware Approximate
Tue 02:26:00 AM 57.1134 -30.8389 103° East  Level FlightAware Approximate
Tue 02:27:00 AM 57.0811 -30.5950 104° East  Level FlightAware Approximate
Tue 02:28:00 AM 57.0483 -30.3515 104° East  Level FlightAware Approximate
Tue 02:29:00 AM 57.0150 -30.1085 104° East  Level FlightAware Approximate
Tue 02:30:00 AM 56.9914 -29.8625 97° East  Level FlightAware Approximate
Tue 02:31:00 AM 56.9753 -29.6140 97° East  Level FlightAware Approximate
Tue 02:32:00 AM 56.9589 -29.3657 97° East  Level FlightAware Approximate
Tue 02:33:00 AM 56.9419 -29.1176 97° East  Level FlightAware Approximate
Tue 02:34:00 AM 56.9244 -28.8697 97° East  Level FlightAware Approximate
Tue 02:35:00 AM 56.9064 -28.6221 97° East  Level FlightAware Approximate
Tue 02:36:00 AM 56.8880 -28.3747 98° East  Level FlightAware Approximate
Tue 02:37:00 AM 56.8690 -28.1276 98° East  Level FlightAware Approximate
Tue 02:38:00 AM 56.8496 -27.8807 98° East  Level FlightAware Approximate
Tue 02:39:00 AM 56.8297 -27.6341 98° East  Level FlightAware Approximate
Tue 02:40:00 AM 56.8092 -27.3877 99° East  Level FlightAware Approximate
Tue 02:41:00 AM 56.7883 -27.1416 99° East  Level FlightAware Approximate
Tue 02:42:00 AM 56.7681 -26.8955 98° East  Level FlightAware Approximate
Tue 02:43:00 AM 56.7477 -26.6495 98° East  Level FlightAware Approximate
Tue 02:44:00 AM 56.7269 -26.4038 99° East  Level FlightAware Approximate
Tue 02:45:00 AM 56.7055 -26.1584 99° East  Level FlightAware Approximate
Tue 02:46:00 AM 56.6837 -25.9132 99° East  Level FlightAware Approximate
Tue 02:47:00 AM 56.6614 -25.6684 99° East  Level FlightAware Approximate
Tue 02:48:00 AM 56.6386 -25.4238 100° East  Level FlightAware Approximate
Tue 02:49:00 AM 56.6154 -25.1796 100° East  Level FlightAware Approximate
Tue 02:50:00 AM 56.5916 -24.9356 100° East  Level FlightAware Approximate
Tue 02:51:00 AM 56.5674 -24.6920 100° East  Level FlightAware Approximate
Tue 02:52:00 AM 56.5427 -24.4486 100° East  Level FlightAware Approximate
Tue 02:53:00 AM 56.5175 -24.2056 101° East  Level FlightAware Approximate
Tue 02:54:00 AM 56.4919 -23.9629 101° East  Level FlightAware Approximate
Tue 02:55:00 AM 56.4658 -23.7206 101° East  Level FlightAware Approximate
Tue 02:56:00 AM 56.4392 -23.4786 101° East  Level FlightAware Approximate
Tue 02:57:00 AM 56.4121 -23.2369 101° East  Level FlightAware Approximate
Tue 02:58:00 AM 56.3846 -22.9956 102° East  Level FlightAware Approximate
Tue 02:59:00 AM 56.3566 -22.7546 102° East  Level FlightAware Approximate
Tue 03:00:00 AM 56.3282 -22.5140 102° East  Level FlightAware Approximate
Tue 03:01:00 AM 56.2992 -22.2737 102° East  Level FlightAware Approximate
Tue 03:02:00 AM 56.2698 -22.0338 102° East  Level FlightAware Approximate
Tue 03:03:00 AM 56.2400 -21.7943 103° East  Level FlightAware Approximate
Tue 03:04:00 AM 56.2097 -21.5551 103° East  Level FlightAware Approximate
Tue 03:05:00 AM 56.1789 -21.3164 103° East  Level FlightAware Approximate
Tue 03:06:00 AM 56.1477 -21.0780 103° East  Level FlightAware Approximate
Tue 03:07:00 AM 56.1160 -20.8400 103° East  Level FlightAware Approximate
Tue 03:08:00 AM 56.0838 -20.6024 104° East  Level FlightAware Approximate
Tue 03:09:00 AM 56.0512 -20.3652 104° East  Level FlightAware Approximate
Tue 03:10:00 AM 56.0181 -20.1284 104° East  Level FlightAware Approximate
Tue 03:11:00 AM 55.9879 -19.8907 101° East  Level FlightAware Approximate
Tue 03:12:00 AM 55.9611 -19.6518 101° East  Level FlightAware Approximate
Tue 03:13:00 AM 55.9338 -19.4132 101° East  Level FlightAware Approximate
Tue 03:14:00 AM 55.9061 -19.1749 102° East  Level FlightAware Approximate
Tue 03:15:00 AM 55.8779 -18.9370 102° East  Level FlightAware Approximate
Tue 03:16:00 AM 55.8492 -18.6994 102° East  Level FlightAware Approximate
Tue 03:17:00 AM 55.8201 -18.4622 102° East  Level FlightAware Approximate
Tue 03:18:00 AM 55.7905 -18.2253 102° East  Level FlightAware Approximate
Tue 03:19:00 AM 55.7605 -17.9888 103° East  Level FlightAware Approximate
Tue 03:20:00 AM 55.7300 -17.7526 103° East  Level FlightAware Approximate
Tue 03:21:00 AM 55.6991 -17.5169 103° East  Level FlightAware Approximate
Tue 03:22:00 AM 55.6677 -17.2815 103° East  Level FlightAware Approximate
Tue 03:23:00 AM 55.6364 -17.0463 103° East  Level FlightAware Approximate
Tue 03:24:00 AM 55.6051 -16.8113 103° East  Level FlightAware Approximate
Tue 03:25:00 AM 55.5734 -16.5766 103° East  Level FlightAware Approximate
Tue 03:26:00 AM 55.5412 -16.3423 104° East  Level FlightAware Approximate
Tue 03:27:00 AM 55.5086 -16.1084 104° East  Level FlightAware Approximate
Tue 03:28:00 AM 55.4756 -15.8748 104° East  Level FlightAware Approximate
Tue 03:29:00 AM 55.4421 -15.6417 104° East  Level FlightAware Approximate
Tue 03:30:00 AM 55.4081 -15.4090 104° East  Level FlightAware Approximate
Tue 03:31:00 AM 55.3737 -15.1766 105° East  Level FlightAware Approximate
Tue 03:32:00 AM 55.3389 -14.9447 105° East  Level FlightAware Approximate
Tue 03:33:00 AM 55.3037 -14.7132 105° East  Level FlightAware Approximate
Tue 03:34:00 AM 55.2680 -14.4821 105° East  Level FlightAware Approximate
Tue 03:35:00 AM 55.2318 -14.2514 105° East  Level FlightAware Approximate
Tue 03:36:00 AM 55.1953 -14.0211 105° East  Level FlightAware Approximate
Tue 03:37:00 AM 55.1583 -13.7913 106° East  Level FlightAware Approximate
Tue 03:37:02 AM 54.8410 -13.8340 106° East 488 562 39,000  Level FlightAware ADS-B
Tue 03:37:47 AM 54.8180 -13.6490 102° East 487 560 39,000  Level FlightAware ADS-B
Tue 03:38:27 AM 54.7990 -13.4940 102° East 487 560 39,000  Level FlightAware ADS-B
Tue 03:39:07 AM 54.7790 -13.3430 103° East 487 560 39,000  Level FlightAware ADS-B
Tue 03:39:52 AM 54.7570 -13.1720 103° East 488 562 39,000  Level FlightAware ADS-B
Tue 03:40:32 AM 54.7370 -13.0170 103° East 487 560 39,000  Level FlightAware ADS-B
Tue 03:41:17 AM 54.7150 -12.8540 103° East 487 560 39,000  Level FlightAware ADS-B
Tue 03:41:57 AM 54.6940 -12.6980 103° East 487 560 39,000  Level FlightAware ADS-B
Tue 03:42:37 AM 54.6760 -12.5620 103° East 39,000  Level FlightAware ADS-B
Tue 03:43:22 AM 54.6500 -12.3760 104° East 490 564 39,000  Level FlightAware ADS-B
Tue 03:44:02 AM 54.6290 -12.2180 103° East 490 564 39,000  Level FlightAware ADS-B
Tue 03:44:42 AM 54.6080 -12.0680 104° East 491 565 39,000  Level FlightAware ADS-B
Tue 03:45:27 AM 54.5840 -11.8980 104° East 490 564 39,000  Level FlightAware ADS-B
Tue 03:46:07 AM 54.5620 -11.7440 104° East 491 565 39,000  Level FlightAware ADS-B
Tue 03:46:47 AM 54.5400 -11.5960 104° East 488 562 39,000  Level FlightAware ADS-B
Tue 03:47:32 AM 54.5160 -11.4270 104° East 488 562 39,000  Level FlightAware ADS-B
Tue 03:48:12 AM 54.4940 -11.2770 104° East 489 563 39,000  Level FlightAware ADS-B
Tue 03:48:57 AM 54.4690 -11.1080 104° East 489 563 39,000  Level FlightAware ADS-B
Tue 03:49:37 AM 54.4450 -10.9530 105° East 489 563 39,000  Level FlightAware ADS-B
Tue 03:50:22 AM 54.4200 -10.7860 104° East 489 563 39,000  Level FlightAware ADS-B
Tue 03:50:47 AM 54.4050 -10.6890 105° East 488 562 39,000  Level FlightAware ADS-B
Tue 03:51:32 AM 54.3800 -10.5220 104° East 488 562 39,000  Level FlightAware ADS-B
Tue 03:51:57 AM 54.3650 -10.4270 105° East 488 562 39,000  Level FlightAware ADS-B
Tue 03:52:32 AM 54.3450 -10.2990 105° East 490 564 39,000  Level FlightAware ADS-B
Tue 03:53:17 AM 54.3180 -10.1270 105° East 491 565 39,000  Level FlightAware ADS-B
Tue 03:53:57 AM 54.2950 -9.9800 105° East 490 564 39,000  Level FlightAware ADS-B
Tue 03:54:42 AM 54.2680 -9.8140 106° East 489 563 39,000  Level FlightAware ADS-B
Tue 03:55:22 AM 54.2430 -9.6630 106° East 488 562 39,000  Level FlightAware ADS-B
Tue 03:56:02 AM 54.2190 -9.5160 106° East 488 562 39,000  Level FlightAware ADS-B
Tue 03:56:47 AM 54.1910 -9.3470 106° East 489 563 39,000  Level FlightAware ADS-B
Tue 03:57:27 AM 54.1670 -9.1980 105° East 486 559 39,000 -928 Level FlightAware ADS-B
Tue 03:58:24 AM 54.1303 -8.9818 105° East 480 552 37,500 -1,200 Descending FlightAware UK
Tue 03:58:42 AM 54.1192 -8.9155 106° East 480 552 37,500  Level FlightAware UK
Tue 03:59:00 AM 54.1078 -8.8490 106° East 480 552 37,500  Level FlightAware UK
Tue 03:59:18 AM 54.0964 -8.7824 106° East 478 550 37,500  Level FlightAware UK
Tue 03:59:36 AM 54.0851 -8.7159 106° East 480 552 37,500  Level FlightAware UK
Tue 03:59:54 AM 54.0738 -8.6494 106° East 482 555 37,500  Level FlightAware UK
Tue 04:00:12 AM 54.0623 -8.5829 106° East 480 552 37,500  Level FlightAware UK
Tue 04:00:30 AM 54.0507 -8.5163 107° East 482 555 37,500  Level FlightAware UK
Tue 04:00:48 AM 54.0388 -8.4492 107° East 482 555 37,500  Level FlightAware UK
Tue 04:01:06 AM 54.0270 -8.3825 107° East 482 555 37,500  Level FlightAware UK
Tue 04:01:24 AM 54.0153 -8.3159 107° East 482 555 37,500  Level FlightAware UK
Tue 04:01:42 AM 54.0038 -8.2494 106° East 482 555 37,500  Level FlightAware UK
Tue 04:02:00 AM 53.9920 -8.1829 107° East 484 557 37,500 3,600 Level FlightAware UK
Tue 04:02:07 AM 53.9910 -8.1820 107° East 490 564 39,000  Climbing FlightAware ADS-B
Tue 04:02:24 AM 53.9764 -8.0941 107° East 486 559 37,500 -2,571 Descending FlightAware UK
Tue 04:02:42 AM 53.9645 -8.0277 107° East 484 557 37,500 2,727 Level FlightAware UK
Tue 04:02:57 AM 53.9580 -7.9960 107° East 492 566 39,000  Climbing FlightAware ADS-B
Tue 04:03:00 AM 53.9525 -7.9613 107° East 484 557 37,500 -6,000 Descending FlightAware UK
Tue 04:03:12 AM 53.9446 -7.9171 107° East 484 557 37,500  Level FlightAware UK
Tue 04:03:30 AM 53.9326 -7.8509 107° East 484 557 37,500  Level FlightAware UK
Tue 04:03:48 AM 53.9206 -7.7848 107° East 486 559 37,500  Level FlightAware UK
Tue 04:04:06 AM 53.9086 -7.7187 107° East 484 557 37,500  Level FlightAware UK
Tue 04:04:24 AM 53.8966 -7.6528 107° East 482 555 37,500  Level FlightAware UK
Tue 04:04:42 AM 53.8847 -7.5871 107° East 482 555 37,500  Level FlightAware UK
Tue 04:05:00 AM 53.8726 -7.5214 107° East 482 555 37,500  Level FlightAware UK
Tue 04:05:18 AM 53.8604 -7.4557 107° East 482 555 37,500  Level FlightAware UK
Tue 04:05:36 AM 53.8482 -7.3901 107° East 480 552 37,500  Level FlightAware UK
Tue 04:05:54 AM 53.8361 -7.3245 107° East 482 555 37,500  Level FlightAware UK
Tue 04:06:12 AM 53.8237 -7.2581 108° East 480 552 37,500  Level FlightAware UK
Tue 04:06:30 AM 53.8115 -7.1925 107° East 482 555 37,500  Level FlightAware UK
Tue 04:06:48 AM 53.7992 -7.1269 108° East 482 555 37,500  Level FlightAware UK
Tue 04:07:06 AM 53.7870 -7.0612 107° East 482 555 37,500 4,737 Level FlightAware UK
Tue 04:07:07 AM 53.7900 -7.0810 107° East 491 565 39,000  Climbing FlightAware ADS-B
Tue 04:07:24 AM 53.7747 -6.9956 107° East 482 555 37,500 -2,571 Descending FlightAware UK
Tue 04:07:42 AM 53.7622 -6.9300 108° East 482 555 37,500  Level FlightAware UK
Tue 04:08:00 AM 53.7496 -6.8644 108° East 482 555 37,500  Level FlightAware UK
Tue 04:08:18 AM 53.7370 -6.7987 108° East 482 555 37,500  Level FlightAware UK
Tue 04:08:36 AM 53.7245 -6.7330 108° East 480 552 37,500  Level FlightAware UK
Tue 04:08:54 AM 53.7119 -6.6674 108° East 480 552 37,500  Level FlightAware UK
Tue 04:09:12 AM 53.6993 -6.6019 108° East 482 555 37,500  Level FlightAware UK
Tue 04:09:30 AM 53.6867 -6.5362 108° East 482 555 37,500  Level FlightAware UK
Tue 04:09:48 AM 53.6741 -6.4706 108° East 482 555 37,500  Level FlightAware UK
Tue 04:10:06 AM 53.6613 -6.4051 108° East 482 555 37,500  Level FlightAware UK
Tue 04:10:24 AM 53.6484 -6.3396 108° East 484 557 37,500  Level FlightAware UK
Tue 04:10:42 AM 53.6355 -6.2741 108° East 484 557 37,500 5,000 Level FlightAware UK
Tue 04:10:42 AM 53.6390 -6.2960 108° East 490 564 39,000  Climbing FlightAware ADS-B
Tue 04:11:00 AM 53.6226 -6.2087 108° East 480 552 37,500 -2,500 Descending FlightAware UK
Tue 04:11:18 AM 53.6096 -6.1435 109° East 482 555 37,500 3,333 Level FlightAware UK
Tue 04:11:27 AM 53.6080 -6.1350 109° East 490 564 39,000  Climbing FlightAware ADS-B
Tue 04:11:42 AM 53.5923 -6.0564 109° East 482 555 37,500 -2,727 Descending FlightAware UK
Tue 04:12:00 AM 53.5792 -5.9903 108° East 482 555 37,500 3,000 Level FlightAware UK
Tue 04:12:12 AM 53.5730 -5.9590 108° East 493 567 39,000  Climbing FlightAware ADS-B
Tue 04:12:30 AM 53.5575 -5.8814 108° East 482 555 37,500 -2,500 Descending FlightAware UK
Tue 04:12:48 AM 53.5445 -5.8161 108° East 484 557 37,500 4,091 Level FlightAware UK
Tue 04:12:52 AM 53.5440 -5.8150 108° East 494 568 39,000  Climbing FlightAware ADS-B
Tue 04:13:12 AM 53.5268 -5.7292 108° East 482 555 37,500 -2,368 Descending FlightAware UK
Tue 04:13:30 AM 53.5148 -5.6631 107° East 482 555 37,500 4,500 Level FlightAware UK
Tue 04:13:32 AM 53.5160 -5.6700 107° East 496 571 39,000  Climbing FlightAware ADS-B
Tue 04:13:48 AM 53.5059 -5.5955 107° East 484 557 37,500 -2,647 Descending FlightAware UK
Tue 04:14:06 AM 53.4994 -5.5270 99° East 486 559 37,500 3,103 Level FlightAware UK
Tue 04:14:17 AM 53.4970 -5.4950 99° East 497 572 39,000  Climbing FlightAware ADS-B
Tue 04:14:36 AM 53.4937 -5.4121 99° East 486 559 37,500 -2,432 Descending FlightAware UK
Tue 04:14:54 AM 53.4912 -5.3429 93° East 484 557 37,500 4,286 Level FlightAware UK
Tue 04:14:57 AM 53.4910 -5.3420 93° East 497 572 39,000  Climbing FlightAware ADS-B
Tue 04:15:12 AM 53.4885 -5.2728 93° East 482 555 37,500 -2,727 Descending FlightAware UK
Tue 04:15:30 AM 53.4857 -5.2036 94° East 482 555 37,500 3,000 Level FlightAware UK
Tue 04:15:42 AM 53.4840 -5.1730 94° East 498 573 39,000  Climbing FlightAware ADS-B
Tue 04:16:00 AM 53.4808 -5.0884 94° East 484 557 37,500 -2,500 Descending FlightAware UK
Tue 04:16:18 AM 53.4779 -5.0191 94° East 484 557 37,500 4,091 Level FlightAware UK
Tue 04:16:22 AM 53.4780 -5.0200 94° East 499 574 39,000  Climbing FlightAware ADS-B
Tue 04:16:42 AM 53.4743 -4.9267 94° East 486 559 37,500  Descending FlightAware UK
Tue 04:17:07 AM 53.4710 -4.8390 94° East 498 573 39,000 1,385 Climbing FlightAware ADS-B
Tue 04:17:47 AM 53.4650 -4.6950 94° East 498 573 39,000  Level FlightAware ADS-B
Tue 04:18:32 AM 53.4570 -4.5120 94° East 499 574 39,000 -1,475 Level FlightAware ADS-B
Tue 04:18:48 AM 53.4535 -4.4419 94° East 486 559 37,500  Descending FlightAware UK
Tue 04:19:12 AM 53.4500 -4.3690 94° East 498 573 39,000  Climbing FlightAware ADS-B
Tue 04:19:36 AM 53.4453 -4.2573 94° East 486 559 37,500  Descending FlightAware UK
Tue 04:19:52 AM 53.4430 -4.2140 94° East 497 572 39,000  Climbing FlightAware ADS-B
Tue 04:20:18 AM 53.4376 -4.0964 94° East 484 557 37,500  Descending FlightAware UK
Tue 04:20:37 AM 53.4350 -4.0470 94° East 497 572 39,000  Climbing FlightAware ADS-B
Tue 04:21:07 AM 53.4288 -3.9121 94° East 484 557 37,500  Descending FlightAware UK
Tue 04:21:16 AM 53.4271 -3.8779 94° East 498 573 39,000  Climbing FlightAware ADS-B
Tue 04:21:43 AM 53.4219 -3.7744 94° East 484 557 37,500  Descending FlightAware UK
Tue 04:21:54 AM 53.4196 -3.7318 94° East 498 573 39,000  Climbing FlightAware ADS-B
Tue 04:22:13 AM 53.4126 -3.6606 94° East 484 557 37,500 -2,432 Descending FlightAware UK
Tue 04:22:31 AM 53.3981 -3.5968 111° Southeast 482 555 37,500 3,103 Level FlightAware UK
Tue 04:22:42 AM 53.3900 -3.5720 111° Southeast 490 564 39,000 4,737 Climbing FlightAware ADS-B
Tue 04:22:50 AM 53.3752 -3.5365 125° Southeast 491 565 39,000 -3,600 Level FlightAware ADS-B
Tue 04:23:07 AM 53.3500 -3.4878 125° Southeast 484 557 37,500  Descending FlightAware UK
Tue 04:23:28 AM 53.3188 -3.4268 125° Southeast 488 562 39,000  Climbing FlightAware ADS-B
Tue 04:23:43 AM 53.2972 -3.3852 125° Southeast 486 559 37,500 -2,727 Descending FlightAware UK
Tue 04:24:01 AM 53.2700 -3.3341 132° Southeast 486 559 37,500 3,750 Level FlightAware UK
Tue 04:24:07 AM 53.2650 -3.3250 132° Southeast 487 560 39,000 10,000 Climbing FlightAware ADS-B
Tue 04:24:10 AM 53.2566 -3.3094 132° Southeast 487 560 39,000 -5,000 Level FlightAware ADS-B
Tue 04:24:25 AM 53.2341 -3.2670 132° Southeast 484 557 37,500  Descending FlightAware UK
Tue 04:24:52 AM 53.1945 -3.1931 132° Southeast 487 560 39,000  Climbing FlightAware ADS-B
Tue 04:25:19 AM 53.1534 -3.1156 132° Southeast 484 557 37,500  Descending FlightAware UK
Tue 04:25:26 AM 53.1435 -3.0976 132° Southeast 487 560 39,000 2,368 Climbing FlightAware ADS-B
Tue 04:25:57 AM 53.0979 -3.0122 132° Southeast 487 560 39,000 -1,915 Level FlightAware ADS-B
Tue 04:26:13 AM 53.0728 -2.9651 132° Southeast 488 562 37,500  Descending FlightAware UK
Tue 04:26:27 AM 53.0524 -2.9270 132° Southeast 487 560 39,000  Climbing FlightAware ADS-B
Tue 04:26:49 AM 53.0192 -2.8650 132° Southeast 484 557 37,500  Descending FlightAware UK
Tue 04:27:05 AM 52.9960 -2.8234 132° Southeast 484 557 39,000  Climbing FlightAware ADS-B
Tue 04:27:25 AM 52.9626 -2.7696 132° Southeast 486 559 37,500  Descending FlightAware UK
Tue 04:27:37 AM 52.9460 -2.7470 132° Southeast 483 556 39,000 1,731 Climbing FlightAware ADS-B
Tue 04:28:17 AM 52.8760 -2.6570 142° Southeast 483 556 39,000 -1,900 Level FlightAware ADS-B
Tue 04:28:37 AM 52.8357 -2.6071 142° Southeast 474 545 37,100 -3,947 Descending FlightAware UK
Tue 04:28:55 AM 52.8038 -2.5675 143° Southeast 472 543 36,500 3,000 Descending FlightAware UK
Tue 04:28:57 AM 52.8060 -2.5700 143° Southeast 472 543 38,100 3,000 Climbing FlightAware ADS-B
Tue 04:29:11 AM 52.7770 -2.5343 143° Southeast 472 543 37,300 -5,647 Descending FlightAware ADS-B
Tue 04:29:31 AM 52.7413 -2.4901 143° Southeast 472 543 34,900 -2,516 Descending FlightAware UK
Tue 04:29:42 AM 52.7243 -2.4691 143° Southeast 473 544 36,000 -2,800 Climbing FlightAware ADS-B
Tue 04:30:01 AM 52.6890 -2.4254 143° Southeast 476 548 33,500 -2,667 Descending FlightAware UK
Tue 04:30:18 AM 52.6614 -2.3912 143° Southeast 474 545 34,400 625 Climbing FlightAware ADS-B
Tue 04:30:49 AM 52.6069 -2.3238 143° Southeast 468 539 34,000 -1,015 Descending FlightAware ADS-B
Tue 04:31:23 AM 52.5494 -2.2517 143° Southeast 463 533 33,300 -2,000 Descending FlightAware ADS-B
Tue 04:31:55 AM 52.4942 -2.1817 142° Southeast 463 533 31,800 -3,895 Descending FlightAware ADS-B
Tue 04:32:20 AM 52.4532 -2.1289 142° Southeast 456 525 29,600 -1,895 Descending FlightAware UK
Tue 04:32:33 AM 52.4318 -2.1016 142° Southeast 449 517 30,600 -2,333 Climbing FlightAware ADS-B
Tue 04:32:56 AM 52.3949 -2.0538 142° Southeast 448 516 28,200 -2,250 Descending FlightAware UK
Tue 04:33:05 AM 52.3813 -2.0360 142° Southeast 443 510 29,400 150 Climbing FlightAware ADS-B
Tue 04:33:36 AM 52.3311 -1.9699 141° Southeast 436 502 28,300 -4,000 Descending FlightAware ADS-B
Tue 04:33:56 AM 52.3000 -1.9290 141° Southeast 436 502 26,000 -2,129 Descending FlightAware UK
Tue 04:34:07 AM 52.2834 -1.9076 141° Southeast 429 494 27,200 1,200 Climbing FlightAware ADS-B
Tue 04:34:26 AM 52.2540 -1.8713 143° Southeast 423 487 26,600 -4,186 Descending FlightAware ADS-B
Tue 04:34:50 AM 52.2149 -1.8274 143° Southeast 426 490 24,200 -2,000 Descending FlightAware UK
Tue 04:34:56 AM 52.2051 -1.8167 143° Southeast 417 480 25,600 -1,750 Climbing FlightAware ADS-B
Tue 04:35:14 AM 52.1768 -1.7851 143° Southeast 420 483 23,500 -1,935 Descending FlightAware UK
Tue 04:35:27 AM 52.1573 -1.7636 143° Southeast 410 472 24,600 -2,000 Climbing FlightAware ADS-B
Tue 04:35:44 AM 52.1298 -1.7333 143° Southeast 416 479 22,500 -1,935 Descending FlightAware UK
Tue 04:35:58 AM 52.1093 -1.7119 143° Southeast 401 461 23,600 -1,800 Climbing FlightAware ADS-B
Tue 04:36:14 AM 52.0833 -1.6841 143° Southeast 410 472 21,600 -1,875 Descending FlightAware UK
Tue 04:36:30 AM 52.0602 -1.6597 143° Southeast 394 453 22,600 128 Climbing FlightAware ADS-B
Tue 04:37:01 AM 52.0131 -1.6092 147° Southeast 387 445 21,700 -1,869 Descending FlightAware ADS-B
Tue 04:37:31 AM 51.9685 -1.5625 147° Southeast 381 438 20,700 -2,066 Descending FlightAware ADS-B
Tue 04:38:02 AM 51.9232 -1.5142 147° Southeast 377 434 19,600 -2,095 Descending FlightAware ADS-B
Tue 04:38:34 AM 51.8765 -1.4645 147° Southeast 375 432 18,500 -4,000 Descending FlightAware ADS-B
Tue 04:38:50 AM 51.8526 -1.4390 147° Southeast 380 437 16,400 -4,588 Descending FlightAware UK
Tue 04:39:08 AM 51.8274 -1.4127 147° Southeast 378 435 15,900 1,920 Descending FlightAware UK
Tue 04:39:15 AM 51.8178 -1.4025 147° Southeast 367 422 17,200 -2,000 Climbing FlightAware ADS-B
Tue 04:39:38 AM 51.7851 -1.3678 147° Southeast 372 428 14,900 -1,800 Descending FlightAware UK
Tue 04:39:45 AM 51.7755 -1.3577 147° Southeast 361 415 16,300 -1,800 Climbing FlightAware ADS-B
Tue 04:40:08 AM 51.7431 -1.3240 147° Southeast 366 421 14,000 -1,935 Descending FlightAware UK
Tue 04:40:16 AM 51.7330 -1.3145 147° Southeast 356 410 15,300 -1,250 Climbing FlightAware ADS-B
Tue 04:40:32 AM 51.7095 -1.2906 147° Southeast 364 419 13,500 -600 Descending FlightAware UK
Tue 04:40:46 AM 51.6905 -1.2716 147° Southeast 358 412 15,000 2,000 Climbing FlightAware ADS-B
Tue 04:41:17 AM 51.6481 -1.2288 148° Southeast 356 410 15,000  Level FlightAware ADS-B
Tue 04:41:48 AM 51.6040 -1.1844 148° Southeast 357 411 15,000 -1,765 Level FlightAware ADS-B
Tue 04:42:08 AM 51.5755 -1.1556 148° Southeast 364 419 13,500  Descending FlightAware UK
Tue 04:42:19 AM 51.5617 -1.1416 148° Southeast 355 409 15,000 2,195 Climbing FlightAware ADS-B
Tue 04:42:49 AM 51.5198 -1.0994 148° Southeast 355 409 15,000  Level FlightAware ADS-B
Tue 04:43:19 AM 51.4778 -1.0570 148° Southeast 355 409 15,000  Level FlightAware ADS-B
Tue 04:43:50 AM 51.4352 -1.0143 148° Southeast 355 409 15,000  Level FlightAware ADS-B
Tue 04:44:20 AM 51.3928 -0.9717 148° Southeast 355 409 15,000  Level FlightAware ADS-B
Tue 04:44:50 AM 51.3510 -0.9301 148° Southeast 355 409 15,000  Level FlightAware ADS-B
Tue 04:45:21 AM 51.3088 -0.8878 148° Southeast 356 410 15,000  Level FlightAware ADS-B
Tue 04:45:41 AM 51.2805 -0.8588 147° Southeast 356 410 15,000  Level FlightAware ADS-B
Tue 04:45:50 AM 51.2683 -0.8438 142° Southeast 356 410 15,000  Level FlightAware ADS-B
Tue 04:46:02 AM 51.2541 -0.8227 137° Southeast 356 410 15,000  Level FlightAware ADS-B
Tue 04:46:08 AM 51.2476 -0.8116 133° Southeast 356 410 15,000  Level FlightAware ADS-B
Tue 04:46:16 AM 51.2391 -0.7955 130° Southeast 356 410 15,000 -3,600 Level FlightAware ADS-B
Tue 04:46:33 AM 51.2217 -0.7603 130° Southeast 364 419 13,500  Descending FlightAware UK
Tue 04:46:47 AM 51.2079 -0.7326 130° Southeast 355 409 15,000 2,045 Climbing FlightAware ADS-B
Tue 04:47:17 AM 51.1774 -0.6710 128° Southeast 355 409 15,000  Level FlightAware ADS-B
Tue 04:47:48 AM 51.1449 -0.6060 129° Southeast 355 409 15,000 -1,957 Level FlightAware ADS-B
Tue 04:48:03 AM 51.1299 -0.5758 129° Southeast 362 417 13,500 -1,161 Descending FlightAware UK
Tue 04:48:19 AM 51.1139 -0.5441 129° Southeast 353 406 14,400 -128 Climbing FlightAware ADS-B
Tue 04:48:50 AM 51.0819 -0.4806 129° Southeast 348 400 13,400 -3,536 Descending FlightAware ADS-B
Tue 04:49:15 AM 51.0570 -0.4312 129° Southeast 352 405 11,100 -1,742 Descending FlightAware UK
Tue 04:49:21 AM 51.0515 -0.4203 129° Southeast 344 396 12,500 -1,800 Climbing FlightAware ADS-B
Tue 04:49:45 AM 51.0272 -0.3720 129° Southeast 350 403 10,200 -1,800 Descending FlightAware UK
Tue 04:49:51 AM 51.0215 -0.3606 129° Southeast 336 387 11,600 -1,667 Climbing FlightAware ADS-B
Tue 04:50:21 AM 50.9924 -0.3029 129° Southeast 342 394 9,200 -1,784 Descending FlightAware UK
Tue 04:50:28 AM 50.9865 -0.2917 129° Southeast 331 381 10,500 1,459 Climbing FlightAware ADS-B
Tue 04:50:58 AM 50.9578 -0.2351 129° Southeast 310 357 10,100 -2,426 Descending FlightAware ADS-B
Tue 04:51:15 AM 50.9430 -0.2057 129° Southeast 304 350 8,600 -182 Descending FlightAware UK
Tue 04:51:31 AM 50.9305 -0.1813 129° Southeast 285 328 10,000 -667 Climbing FlightAware ADS-B
Tue 04:51:51 AM 50.9137 -0.1477 129° Southeast 288 331 8,200 -833 Descending FlightAware UK
Tue 04:52:07 AM 50.9080 -0.1260 129° Southeast 279 321 9,500 652 Climbing FlightAware ADS-B
Tue 04:52:37 AM 50.9190 -0.0640 74° East 296 341 8,700 -1,650 Descending FlightAware ADS-B
Tue 04:52:47 AM 50.9290 -0.0510 39° Northeast 300 345 8,400 -1,680 Descending FlightAware ADS-B
Tue 04:53:02 AM 50.9500 -0.0400 18° North 309 356 8,000 -4,200 Descending FlightAware ADS-B
Tue 04:53:27 AM 50.9874 -0.0583 18° North 294 338 5,600 -1,800 Descending FlightAware UK
Tue 04:53:32 AM 50.9890 -0.0610 18° North 312 359 7,100 5,600 Climbing FlightAware ADS-B
Tue 04:53:42 AM 50.9990 -0.0800 310° West 300 345 7,000 -300 Descending FlightAware ADS-B
Tue 04:53:52 AM 51.0030 -0.0990 289° West 289 333 7,000 -2,727 Level FlightAware ADS-B
Tue 04:54:15 AM 51.0094 -0.1508 289° West 256 295 5,500 -2,195 Descending FlightAware UK
Tue 04:54:33 AM 51.0132 -0.1837 280° West 238 274 5,500 -429 Level FlightAware UK
Tue 04:54:57 AM 51.0183 -0.2260 281° West 236 272 5,200 -857 Descending FlightAware UK
Tue 04:55:15 AM 51.0219 -0.2574 280° West 240 276 4,900 2,880 Descending FlightAware UK
Tue 04:55:22 AM 51.0220 -0.2590 280° West 246 283 6,400 -1,250 Climbing FlightAware ADS-B
Tue 04:55:39 AM 51.0265 -0.3004 280° West 240 276 4,400 -1,400 Descending FlightAware UK
Tue 04:55:52 AM 51.0280 -0.3180 280° West 248 285 5,700 1,105 Climbing FlightAware ADS-B
Tue 04:56:17 AM 51.0330 -0.3610 280° West 236 272 5,100 -3,447 Descending FlightAware ADS-B
Tue 04:56:39 AM 51.0372 -0.4040 280° West 214 246 3,000 -1,200 Descending FlightAware UK
Tue 04:56:47 AM 51.0380 -0.4090 280° West 220 253 4,500 3,130 Climbing FlightAware ADS-B
Tue 04:57:02 AM 51.0400 -0.4320 278° West 219 252 4,200 -1,050 Descending FlightAware ADS-B
Tue 04:57:27 AM 51.0460 -0.4750 283° West 216 249 3,800 -900 Descending FlightAware ADS-B
Tue 04:57:42 AM 51.0580 -0.4910 320° Northwest 205 236 3,600 -3,167 Descending FlightAware ADS-B
Tue 04:58:03 AM 51.0779 -0.5006 320° Northwest 188 216 1,900 -400 Descending FlightAware UK
Tue 04:58:12 AM 51.0840 -0.5030 320° Northwest 199 229 3,400 -500 Climbing FlightAware ADS-B
Tue 04:58:27 AM 51.0993 -0.4994 320° Northwest 190 219 1,700 -240 Descending FlightAware UK
Tue 04:58:37 AM 51.1040 -0.4930 320° Northwest 188 216 3,300 3,600 Climbing FlightAware ADS-B
Tue 04:58:52 AM 51.1090 -0.4720 69° East 182 209 3,200 -343 Descending FlightAware ADS-B
Tue 04:59:12 AM 51.1120 -0.4490 78° East 182 209 3,100 -514 Descending FlightAware ADS-B
Tue 04:59:27 AM 51.1150 -0.4270 78° East 185 213 2,900 -857 Descending FlightAware ADS-B
Tue 04:59:47 AM 51.1190 -0.4010 76° East 176 203 2,600 -3,500 Descending FlightAware ADS-B
Tue 05:00:03 AM 51.1218 -0.3791 76° East 168 193 800 -857 Descending FlightAware UK
Tue 05:00:22 AM 51.1240 -0.3650 76° East 165 190 2,100 980 Climbing FlightAware ADS-B
Tue 05:00:52 AM 51.1290 -0.3260 78° East 160 184 1,600 -900 Descending FlightAware ADS-B
Tue 05:01:22 AM 51.1340 -0.2930 76° East 145 167 1,200 -800 Descending FlightAware ADS-B
Tue 05:01:37 AM 51.1360 -0.2780 78° East 145 167 1,000 -720 Descending FlightAware ADS-B
Tue 05:02:12 AM 51.1410 -0.2410 78° East 143 165 600 -686 Descending FlightAware ADS-B
Tue 05:02:47 AM 51.1450 -0.2120 78° East 141 162 200 -686 Descending FlightAware ADS-B
Tue 05:05:00 AM 51.1481 -0.1903 148° Southeast  Level Estimated

Login

Don't have an account? Register now (free) for customized features, flight alerts, and more!